Time;durP1;ratioP1;P1;durP2;ratioP2;P2;SDS_P1;SDS_P2;PMS_P1;PMS_P2;Temp;Humidity;BMP_temperature;BMP_pressure;BME280_temperature;BME280_humidity;BME280_pressure;Samples;Min_cycle;Max_cycle;Signal;HPM_P1;HPM_P2
2020/12/11 18:51:19;;;;;;;168.30;46.67;;;;;;;0.41;100.00;97845.09;1731360;79;28794;-64
2020/12/11 18:53:45;;;;;;;148.57;48.83;;;;;;;0.56;100.00;97846.63;1674405;82;32405;-61
2020/12/11 18:56:28;;;;;;;139.87;49.60;;;;;;;0.71;100.00;97854.28;1685832;84;21084;-67
2020/12/11 18:58:47;;;;;;;129.30;46.13;;;;;;;0.77;100.00;97849.85;1674580;85;21140;-67
2020/12/11 19:01:14;;;;;;;147.63;51.70;;;;;;;0.89;100.00;97842.09;1676471;85;21576;-68
2020/12/11 19:03:40;;;;;;;141.17;51.20;;;;;;;1.01;100.00;97847.43;1692209;84;21628;-67
2020/12/11 19:06:06;;;;;;;141.90;48.73;;;;;;;1.04;100.00;97852.95;1701869;84;21180;-67
2020/12/11 19:08:32;;;;;;;136.73;50.37;;;;;;;1.10;100.00;97853.05;1703638;84;21169;-67
2020/12/11 19:10:58;;;;;;;128.93;43.77;;;;;;;1.21;100.00;97846.91;1703340;84;21177;-68
2020/12/11 19:13:26;;;;;;;117.17;43.50;;;;;;;1.26;100.00;97852.92;1703316;84;21130;-68
2020/12/11 19:15:53;;;;;;;117.10;41.00;;;;;;;1.34;100.00;97845.50;1703307;84;21175;-67
2020/12/11 19:18:21;;;;;;;91.63;34.47;;;;;;;1.46;100.00;97855.62;1681294;84;21133;-69
2020/12/11 19:20:49;;;;;;;94.70;36.50;;;;;;;1.52;100.00;97850.92;1675451;85;21629;-67
2020/12/11 19:23:14;;;;;;;84.73;32.23;;;;;;;1.58;100.00;97849.13;1699385;84;21157;-68
2020/12/11 19:25:40;;;;;;;87.77;34.23;;;;;;;1.57;100.00;97836.89;1703629;84;21696;-68
2020/12/11 19:28:06;;;;;;;85.10;35.77;;;;;;;1.72;100.00;97843.16;1703817;84;21173;-66
2020/12/11 19:30:32;;;;;;;91.80;35.90;;;;;;;1.78;100.00;97835.23;1703826;84;21189;-68
2020/12/11 19:32:58;;;;;;;84.63;34.60;;;;;;;1.85;100.00;97825.41;1672429;86;21150;-67
2020/12/11 19:35:24;;;;;;;84.87;35.27;;;;;;;1.91;100.00;97834.88;1648228;87;21133;-69
2020/12/11 19:37:49;;;;;;;86.90;34.23;;;;;;;1.98;100.00;97827.19;1672510;86;21161;-70
2020/12/11 19:40:15;;;;;;;77.33;31.53;;;;;;;1.98;100.00;97827.19;1647966;87;21180;-64
2020/12/11 19:42:44;;;;;;;83.50;32.23;;;;;;;1.99;100.00;97823.97;1672526;86;21194;-62
2020/12/11 19:45:09;;;;;;;91.73;35.07;;;;;;;1.93;100.00;97820.64;1647884;87;21183;-63
2020/12/11 19:47:34;;;;;;;80.97;33.53;;;;;;;2.00;100.00;97823.64;1672382;86;21162;-64
2020/12/11 19:50:01;;;;;;;92.60;33.87;;;;;;;2.06;100.00;97814.39;1643095;87;21177;-64
2020/12/11 19:52:27;;;;;;;85.53;33.80;;;;;;;2.10;100.00;97817.98;1655981;86;21150;-62
2020/12/11 19:54:53;;;;;;;75.60;32.87;;;;;;;2.14;100.00;97816.27;1690967;85;21180;-62
2020/12/11 19:57:19;;;;;;;66.17;26.53;;;;;;;2.15;100.00;97811.70;1657425;86;21115;-64
2020/12/11 19:59:45;;;;;;;79.60;32.63;;;;;;;2.18;100.00;97821.23;1691180;85;21300;-64
2020/12/11 20:02:11;;;;;;;89.93;35.47;;;;;;;2.18;100.00;97819.89;1657099;86;21370;-64
2020/12/11 20:04:37;;;;;;;76.53;32.27;;;;;;;2.23;100.00;97817.62;1690480;84;21170;-65
2020/12/11 20:09:47;;;;;;;73.30;30.27;;;;;;;2.37;100.00;97823.61;1690497;85;21152;-62
2020/12/11 20:12:15;;;;;;;68.33;29.77;;;;;;;2.39;100.00;97824.10;1690424;85;21250;-65
2020/12/11 20:14:40;;;;;;;69.77;29.10;;;;;;;2.34;100.00;97825.58;1690120;84;21146;-64
2020/12/11 20:17:06;;;;;;;71.00;30.37;;;;;;;2.37;100.00;97820.39;1657951;86;21165;-63
2020/12/11 20:19:33;;;;;;;52.23;21.70;;;;;;;2.33;100.00;97821.33;1646120;87;21162;-63
2020/12/11 20:22:00;;;;;;;64.30;26.40;;;;;;;2.32;100.00;97815.76;1645964;87;21149;-70
2020/12/11 20:24:27;;;;;;;66.20;29.57;;;;;;;2.26;100.00;97804.41;1645775;87;21172;-69
2020/12/11 20:26:57;;;;;;;60.63;26.90;;;;;;;2.28;100.00;97812.92;1645773;87;21227;-69
2020/12/11 20:29:24;;;;;;;72.00;29.70;;;;;;;2.22;100.00;97818.72;1645773;87;21573;-69
2020/12/11 20:31:50;;;;;;;72.40;30.63;;;;;;;2.25;100.00;97819.45;1646096;87;21302;-71
2020/12/11 20:34:15;;;;;;;66.93;27.30;;;;;;;2.32;100.00;97817.89;1645763;87;21165;-70
2020/12/11 20:36:41;;;;;;;59.57;26.83;;;;;;;2.36;100.00;97817.47;1638837;87;21692;-68
2020/12/11 20:39:08;;;;;;;62.57;28.10;;;;;;;2.38;100.00;97819.84;1646092;87;21151;-70
2020/12/11 20:41:42;;;;;;;65.50;28.93;;;;;;;2.40;100.00;97816.29;1681177;85;22258;-71
2020/12/11 20:44:09;;;;;;;65.07;26.53;;;;;;;2.41;100.00;97815.19;1659175;85;21186;-70
2020/12/11 20:46:35;;;;;;;56.63;24.20;;;;;;;2.43;100.00;97810.33;1681144;85;21167;-71
2020/12/11 20:49:02;;;;;;;67.80;29.50;;;;;;;2.45;100.00;97804.10;1678592;84;21143;-72
2020/12/11 20:51:30;;;;;;;74.03;31.23;;;;;;;2.27;100.00;97803.86;1681665;84;21198;-71
2020/12/11 20:53:55;;;;;;;69.43;29.73;;;;;;;2.35;100.00;97795.84;1690370;85;21583;-72
2020/12/11 20:56:22;;;;;;;73.90;30.43;;;;;;;2.33;100.00;97791.89;1656891;86;21281;-69
2020/12/11 20:58:48;;;;;;;63.33;30.13;;;;;;;2.34;100.00;97801.50;1662656;85;21182;-69
2020/12/11 21:01:25;;;;;;;65.90;28.93;;;;;;;2.34;100.00;97796.15;1690210;85;21170;-71
2020/12/11 21:03:52;;;;;;;64.00;27.33;;;;;;;2.29;100.00;97794.95;1690190;85;21186;-70
2020/12/11 21:06:18;;;;;;;66.10;29.50;;;;;;;2.22;100.00;97791.96;1690138;85;21622;-70
2020/12/11 21:08:44;;;;;;;65.07;26.37;;;;;;;2.26;100.00;97789.69;1690402;84;21115;-71
2020/12/11 21:11:14;;;;;;;62.77;28.77;;;;;;;2.28;100.00;97789.39;1690586;85;21197;-68
2020/12/11 21:13:41;;;;;;;63.83;27.83;;;;;;;2.33;100.00;97795.91;1690249;85;21118;-68
2020/12/11 21:16:07;;;;;;;70.07;31.63;;;;;;;2.34;100.00;97794.81;1690162;85;21178;-69
2020/12/11 21:18:34;;;;;;;73.93;31.57;;;;;;;2.28;100.00;97793.41;1659544;86;21121;-71
2020/12/11 21:20:59;;;;;;;68.43;28.93;;;;;;;2.25;100.00;97786.77;1646045;87;21169;-71
2020/12/11 21:23:25;;;;;;;75.63;29.90;;;;;;;2.13;100.00;97787.97;1640947;87;21666;-70
2020/12/11 21:25:51;;;;;;;62.53;26.63;;;;;;;2.22;100.00;97794.09;1640446;87;21327;-72
2020/12/11 21:28:20;;;;;;;73.40;31.00;;;;;;;2.19;100.00;97786.70;1640623;87;21620;-70
2020/12/11 21:30:51;;;;;;;68.20;29.63;;;;;;;2.14;100.00;97786.84;1640583;87;21200;-69
2020/12/11 21:33:23;;;;;;;64.83;27.43;;;;;;;2.21;100.00;97789.08;1640094;87;21180;-67
2020/12/11 21:35:46;;;;;;;73.10;30.93;;;;;;;2.11;100.00;97789.36;1639475;87;21326;-67
2020/12/11 21:38:12;;;;;;;66.10;27.73;;;;;;;2.22;100.00;97789.29;1640705;87;21215;-70
2020/12/11 21:40:40;;;;;;;70.17;30.47;;;;;;;2.29;100.00;97796.30;1640433;87;21191;-69
2020/12/11 21:43:05;;;;;;;65.00;28.07;;;;;;;2.35;100.00;97796.39;1640286;87;21313;-70
2020/12/11 21:45:31;;;;;;;66.10;28.60;;;;;;;2.43;100.00;97796.95;1640514;87;21165;-71
2020/12/11 21:47:57;;;;;;;72.03;32.57;;;;;;;2.43;100.00;97794.28;1640460;87;21158;-69
2020/12/11 21:50:23;;;;;;;63.77;24.83;;;;;;;2.46;100.00;97792.30;1639615;87;21215;-69
2020/12/11 21:52:51;;;;;;;74.93;31.33;;;;;;;2.46;100.00;97794.98;1637278;87;21695;-70
2020/12/11 21:55:17;;;;;;;61.37;26.20;;;;;;;2.44;100.00;97792.61;1636944;87;21253;-62
2020/12/11 21:57:43;;;;;;;73.90;29.90;;;;;;;2.34;100.00;97788.13;1634445;87;21597;-62
2020/12/11 22:00:09;;;;;;;70.87;30.00;;;;;;;2.41;100.00;97785.76;1636949;88;21149;-68
2020/12/11 22:02:35;;;;;;;71.40;30.17;;;;;;;2.42;100.00;97798.05;1637204;88;21156;-68
2020/12/11 22:05:03;;;;;;;72.67;31.10;;;;;;;2.37;100.00;97786.94;1636934;87;21600;-67
2020/12/11 22:07:29;;;;;;;71.33;28.93;;;;;;;2.31;100.00;97783.41;1637687;87;21181;-70
2020/12/11 22:09:55;;;;;;;69.63;31.00;;;;;;;2.34;100.00;97781.44;1638269;87;21609;-66
2020/12/11 22:12:21;;;;;;;72.53;31.67;;;;;;;2.36;100.00;97780.59;1638347;87;21137;-66
2020/12/11 22:14:47;;;;;;;75.37;32.30;;;;;;;2.32;100.00;97775.63;1638373;87;21180;-68
2020/12/11 22:17:13;;;;;;;77.57;31.43;;;;;;;2.33;100.00;97773.95;1629517;87;21195;-71
2020/12/11 22:19:40;;;;;;;81.07;32.30;;;;;;;2.37;100.00;97777.58;1612214;88;21145;-68
2020/12/11 22:22:06;;;;;;;74.67;32.70;;;;;;;2.34;100.00;97774.20;1622327;87;21126;-69
2020/12/11 22:25:32;;;;;;;83.87;33.90;;;;;;;2.26;100.00;97776.31;1639273;87;21543;-70
2020/12/11 22:27:09;;;;;;;79.03;32.47;;;;;;;2.30;100.00;97774.59;1603880;86;21637;-71
2020/12/11 22:29:35;;;;;;;73.73;31.80;;;;;;;2.24;100.00;97775.86;1639356;87;21189;-69
2020/12/11 22:32:05;;;;;;;74.87;32.60;;;;;;;2.28;100.00;97780.82;1639241;87;21258;-71
2020/12/11 22:34:29;;;;;;;78.97;34.23;;;;;;;2.27;100.00;97775.22;1638928;87;21168;-69
2020/12/11 22:36:55;;;;;;;76.33;29.87;;;;;;;2.26;100.00;97761.60;1638897;87;21171;-70
2020/12/11 22:39:21;;;;;;;50.03;19.93;;;;;;;2.26;100.00;97760.81;1638465;87;21137;-70
2020/12/11 22:41:50;;;;;;;76.70;32.57;;;;;;;2.04;100.00;97764.97;1638599;87;21157;-67
2020/12/11 22:44:16;;;;;;;82.17;33.10;;;;;;;2.18;100.00;97774.42;1638585;87;21163;-72
2020/12/11 22:46:43;;;;;;;75.30;33.80;;;;;;;2.25;100.00;97772.64;1638541;87;21573;-68
2020/12/11 22:49:08;;;;;;;78.93;34.30;;;;;;;2.28;100.00;97767.98;1638554;87;21596;-69
2020/12/11 22:51:34;;;;;;;79.10;34.70;;;;;;;2.31;100.00;97768.69;1641160;87;21148;-71
2020/12/11 22:54:00;;;;;;;79.97;32.87;;;;;;;2.36;100.00;97767.97;1646770;87;21263;-70
2020/12/11 22:56:26;;;;;;;72.93;31.90;;;;;;;2.40;100.00;97774.27;1646768;87;21287;-68
